Time;durP1;ratioP1;P1;durP2;ratioP2;P2;SDS_P1;SDS_P2;PMS_P1;PMS_P2;Temp;Humidity;BMP_temperature;BMP_pressure;BME280_temperature;BME280_humidity;BME280_pressure;Samples;Min_cycle;Max_cycle;Signal;HPM_P1;HPM_P2
2023/08/08 00:01:42;;;;;;;7.38;2.03;;;17.20;99.90;;;;;;5070113;28;20205;-66
2023/08/08 00:04:09;;;;;;;3.40;1.58;;;17.20;99.90;;;;;;5066542;28;20591;-66
2023/08/08 00:06:37;;;;;;;4.55;1.55;;;17.20;99.90;;;;;;5068886;28;20197;-66
2023/08/08 00:09:07;;;;;;;4.68;1.40;;;17.20;99.90;;;;;;5069473;28;20195;-66
2023/08/08 00:11:34;;;;;;;6.50;1.90;;;17.20;99.90;;;;;;5066723;28;20201;-66
2023/08/08 00:14:03;;;;;;;4.60;1.38;;;17.20;99.90;;;;;;5051300;28;20557;-66
2023/08/08 00:16:31;;;;;;;4.80;1.45;;;17.20;99.90;;;;;;5069045;28;20196;-66
2023/08/08 00:18:58;;;;;;;5.32;1.75;;;17.30;99.90;;;;;;5068609;28;20216;-65
2023/08/08 00:21:25;;;;;;;4.30;1.60;;;17.30;99.90;;;;;;5070543;28;20726;-65
2023/08/08 00:23:54;;;;;;;6.25;1.90;;;17.30;99.90;;;;;;5066866;28;20280;-66
2023/08/08 00:26:21;;;;;;;5.05;1.63;;;17.30;99.90;;;;;;5049494;28;20265;-66
2023/08/08 00:28:48;;;;;;;6.88;1.92;;;17.30;99.90;;;;;;5068466;28;20197;-66
2023/08/08 00:31:19;;;;;;;8.38;1.90;;;17.30;99.90;;;;;;5068713;28;20513;-66
2023/08/08 00:33:46;;;;;;;7.78;1.95;;;17.30;99.90;;;;;;5067156;28;20193;-64
2023/08/08 00:36:13;;;;;;;4.60;1.50;;;17.30;99.90;;;;;;5068999;28;20205;-65
2023/08/08 00:38:43;;;;;;;3.28;1.65;;;17.30;99.90;;;;;;5049768;28;20201;-66
2023/08/08 00:41:10;;;;;;;4.53;1.70;;;17.30;99.90;;;;;;5068552;28;20236;-66
2023/08/08 00:43:37;;;;;;;3.33;1.70;;;17.30;99.90;;;;;;5068322;28;20605;-65
2023/08/08 00:46:04;;;;;;;6.35;1.75;;;17.30;99.90;;;;;;5068690;28;20235;-66
2023/08/08 00:48:33;;;;;;;5.82;1.90;;;17.30;99.90;;;;;;5048817;28;20595;-66
2023/08/08 00:51:01;;;;;;;3.35;1.80;;;17.30;99.90;;;;;;5068421;28;20189;-66
2023/08/08 00:53:31;;;;;;;7.53;1.98;;;17.30;99.90;;;;;;5049408;28;20197;-66
2023/08/08 00:56:00;;;;;;;3.80;1.58;;;17.30;99.90;;;;;;5050337;28;20303;-66
2023/08/08 00:58:27;;;;;;;5.00;1.80;;;17.30;99.90;;;;;;5068513;28;20198;-66
2023/08/08 01:00:57;;;;;;;3.45;1.58;;;17.30;99.90;;;;;;5068505;28;20229;-66
2023/08/08 01:03:24;;;;;;;5.07;1.55;;;17.30;99.90;;;;;;5068165;28;20332;-66
2023/08/08 01:06:00;;;;;;;6.07;1.75;;;17.30;99.90;;;;;;5071670;28;20196;-66
2023/08/08 01:08:35;;;;;;;4.10;1.67;;;17.30;99.90;;;;;;5068694;28;20209;-66
2023/08/08 01:11:04;;;;;;;4.37;1.50;;;17.30;99.90;;;;;;5066638;28;20199;-66
2023/08/08 01:13:32;;;;;;;4.25;1.45;;;17.20;99.90;;;;;;5068311;28;20262;-66
2023/08/08 01:16:00;;;;;;;4.00;1.77;;;17.20;99.90;;;;;;5054516;28;20238;-66
2023/08/08 01:18:28;;;;;;;6.28;2.10;;;17.20;99.90;;;;;;5066377;28;20675;-66
2023/08/08 01:21:00;;;;;;;2.30;1.30;;;17.20;99.90;;;;;;5072142;28;20197;-66
2023/08/08 01:23:31;;;;;;;6.32;2.13;;;17.20;99.90;;;;;;5050168;28;20304;-66
2023/08/08 01:26:00;;;;;;;6.13;2.10;;;17.20;99.90;;;;;;5067419;28;20188;-66
2023/08/08 01:28:27;;;;;;;5.43;1.98;;;17.10;99.90;;;;;;5062605;28;20205;-67
2023/08/08 01:30:54;;;;;;;5.43;2.00;;;17.10;99.90;;;;;;5072851;28;20204;-66
2023/08/08 01:33:22;;;;;;;4.17;1.57;;;17.10;99.90;;;;;;5070087;28;20220;-66
2023/08/08 01:35:53;;;;;;;4.47;1.92;;;17.10;99.90;;;;;;5071583;28;20247;-66
2023/08/08 01:38:27;;;;;;;3.42;1.55;;;17.10;99.90;;;;;;5070385;28;20196;-67
2023/08/08 01:40:57;;;;;;;4.03;1.53;;;17.10;99.90;;;;;;5072345;28;20720;-66
2023/08/08 01:43:26;;;;;;;5.15;1.58;;;17.00;99.90;;;;;;5071097;28;20262;-66
2023/08/08 01:45:54;;;;;;;9.93;2.25;;;17.00;99.80;;;;;;5071876;28;20211;-66
2023/08/08 01:48:22;;;;;;;6.68;1.85;;;17.00;99.80;;;;;;5067323;28;20192;-66
2023/08/08 01:50:50;;;;;;;3.70;1.50;;;17.00;99.80;;;;;;5071965;28;20254;-66
2023/08/08 01:53:17;;;;;;;6.45;1.67;;;17.00;99.90;;;;;;5068751;28;20196;-66
2023/08/08 01:55:44;;;;;;;3.10;1.60;;;17.00;99.80;;;;;;5071959;28;20201;-66
2023/08/08 01:58:12;;;;;;;4.82;1.38;;;17.00;99.90;;;;;;5069697;28;20204;-66
2023/08/08 02:00:43;;;;;;;2.55;1.67;;;17.10;99.80;;;;;;5054691;28;20226;-66
2023/08/08 02:03:11;;;;;;;5.45;2.15;;;17.00;99.50;;;;;;5067015;28;20263;-66
2023/08/08 02:05:38;;;;;;;5.43;1.93;;;17.10;99.50;;;;;;5067132;28;20295;-66
2023/08/08 02:08:06;;;;;;;3.72;1.48;;;17.10;99.30;;;;;;5052907;28;20211;-66
2023/08/08 02:10:33;;;;;;;2.95;1.60;;;17.00;99.30;;;;;;5070503;28;20197;-67
2023/08/08 02:13:00;;;;;;;1.92;1.35;;;17.10;99.90;;;;;;5071323;28;20656;-67
2023/08/08 02:15:27;;;;;;;3.35;1.55;;;17.10;99.60;;;;;;5071271;28;20475;-66
2023/08/08 02:17:55;;;;;;;5.47;1.90;;;17.10;99.60;;;;;;5070085;28;20250;-66
2023/08/08 02:20:23;;;;;;;5.43;1.88;;;17.00;99.30;;;;;;5053665;28;20699;-65
2023/08/08 02:22:52;;;;;;;1.93;1.27;;;17.10;99.50;;;;;;5071599;28;20190;-66
2023/08/08 02:25:19;;;;;;;6.50;1.88;;;17.10;99.50;;;;;;5063285;28;20193;-65
2023/08/08 02:27:47;;;;;;;6.38;1.80;;;17.10;99.60;;;;;;5050483;28;20246;-65
2023/08/08 02:30:15;;;;;;;2.47;1.25;;;17.10;99.60;;;;;;5069008;28;20204;-65
2023/08/08 02:32:42;;;;;;;4.10;1.63;;;17.00;99.60;;;;;;5070646;28;20209;-65
2023/08/08 02:35:11;;;;;;;5.45;2.10;;;17.00;99.60;;;;;;5052890;28;20281;-65
2023/08/08 02:37:38;;;;;;;4.35;1.60;;;17.10;99.60;;;;;;5053145;28;20197;-66
2023/08/08 02:40:06;;;;;;;1.73;1.52;;;17.10;99.60;;;;;;5071595;28;20234;-65
2023/08/08 02:42:33;;;;;;;2.27;1.77;;;17.10;99.70;;;;;;5071022;28;20205;-65
2023/08/08 02:45:00;;;;;;;5.63;1.30;;;17.00;99.70;;;;;;5070876;28;20619;-65
2023/08/08 02:47:27;;;;;;;4.15;1.60;;;17.10;99.90;;;;;;5050708;28;20227;-66
2023/08/08 02:49:54;;;;;;;3.88;1.60;;;17.10;99.90;;;;;;5049972;28;20200;-66
2023/08/08 02:52:23;;;;;;;3.70;1.70;;;17.10;99.90;;;;;;5052867;28;20204;-66
2023/08/08 02:54:50;;;;;;;6.82;2.05;;;17.10;99.90;;;;;;5070712;28;20291;-66
2023/08/08 02:57:17;;;;;;;2.83;1.45;;;17.10;99.90;;;;;;5051097;28;20247;-66
2023/08/08 02:59:45;;;;;;;4.23;2.03;;;17.10;99.90;;;;;;5052587;28;20669;-66
2023/08/08 03:02:12;;;;;;;4.50;1.90;;;17.10;99.90;;;;;;5070379;28;20660;-66
2023/08/08 03:04:40;;;;;;;2.80;1.20;;;17.10;99.90;;;;;;5052343;28;20283;-65
2023/08/08 03:07:08;;;;;;;2.70;1.70;;;17.10;99.90;;;;;;5051532;28;20194;-66
2023/08/08 03:09:38;;;;;;;2.42;1.70;;;17.00;99.90;;;;;;5051673;28;20205;-66
2023/08/08 03:12:07;;;;;;;2.30;1.17;;;17.00;99.90;;;;;;5068938;28;20205;-66
2023/08/08 03:14:35;;;;;;;1.88;1.13;;;17.00;99.90;;;;;;5052492;28;20200;-66
2023/08/08 03:17:04;;;;;;;2.92;1.70;;;17.00;99.90;;;;;;5051226;28;20643;-66
2023/08/08 03:19:33;;;;;;;3.33;1.67;;;17.10;99.90;;;;;;5051817;28;20368;-66
2023/08/08 03:22:02;;;;;;;3.13;1.70;;;17.10;99.90;;;;;;5052554;28;20235;-66
2023/08/08 03:24:29;;;;;;;3.90;1.50;;;17.10;99.90;;;;;;5054787;28;20200;-66
2023/08/08 03:26:57;;;;;;;2.38;1.40;;;17.10;99.90;;;;;;5068337;28;20557;-67
2023/08/08 03:29:24;;;;;;;3.13;1.70;;;17.10;99.90;;;;;;5053747;28;20196;-67
2023/08/08 03:31:51;;;;;;;2.47;1.42;;;17.10;99.90;;;;;;5052296;28;20205;-66
2023/08/08 03:34:19;;;;;;;3.97;1.52;;;17.10;99.90;;;;;;5069968;28;20201;-66
2023/08/08 03:36:46;;;;;;;2.65;1.90;;;17.10;99.90;;;;;;5051867;28;20388;-66
2023/08/08 03:39:14;;;;;;;2.95;1.65;;;17.10;99.90;;;;;;5043180;28;20197;-66
2023/08/08 03:41:41;;;;;;;1.48;1.25;;;17.10;99.90;;;;;;5051869;28;20291;-65
2023/08/08 03:44:09;;;;;;;7.65;2.08;;;17.10;99.90;;;;;;5052695;28;20208;-65
2023/08/08 03:46:36;;;;;;;3.53;1.50;;;17.10;99.90;;;;;;5070754;28;20215;-66
2023/08/08 03:49:03;;;;;;;5.03;1.80;;;17.10;99.90;;;;;;5067644;28;20204;-65
2023/08/08 03:51:31;;;;;;;4.73;1.43;;;17.00;99.90;;;;;;5051777;28;20200;-65
2023/08/08 03:53:58;;;;;;;3.13;1.85;;;17.00;99.90;;;;;;5051604;28;20285;-66
2023/08/08 03:56:25;;;;;;;4.60;1.98;;;17.00;99.90;;;;;;5069158;28;20644;-66
2023/08/08 03:58:54;;;;;;;2.60;1.55;;;17.10;99.90;;;;;;5050666;28;20537;-65
2023/08/08 04:01:24;;;;;;;4.13;1.63;;;17.10;99.90;;;;;;5041982;28;20217;-67
2023/08/08 04:03:51;;;;;;;2.87;1.70;;;17.10;99.90;;;;;;5043903;28;20248;-66
2023/08/08 04:06:18;;;;;;;3.47;1.80;;;17.00;99.90;;;;;;5046323;28;20275;-65
2023/08/08 04:08:45;;;;;;;2.67;1.63;;;17.10;99.90;;;;;;5050217;28;20211;-66
2023/08/08 04:11:13;;;;;;;6.13;1.50;;;17.10;99.90;;;;;;5049996;28;20197;-67
2023/08/08 04:13:40;;;;;;;1.77;1.27;;;17.10;99.90;;;;;;5048009;28;20206;-67
2023/08/08 04:16:07;;;;;;;2.42;1.55;;;17.10;99.90;;;;;;5050022;28;20287;-67
2023/08/08 04:18:35;;;;;;;2.50;1.50;;;17.20;99.90;;;;;;5046298;28;20200;-66
2023/08/08 04:21:02;;;;;;;3.65;1.88;;;17.20;99.90;;;;;;5045136;28;20214;-67
2023/08/08 04:23:29;;;;;;;3.58;1.65;;;17.10;99.90;;;;;;5047625;28;20637;-66
2023/08/08 04:25:56;;;;;;;2.53;1.55;;;17.20;99.90;;;;;;5049113;28;20286;-67
2023/08/08 04:28:23;;;;;;;5.30;1.83;;;17.10;99.90;;;;;;5043737;28;20228;-67
2023/08/08 04:30:50;;;;;;;3.73;1.83;;;17.10;99.90;;;;;;5046965;28;20201;-66
2023/08/08 04:33:17;;;;;;;3.58;1.38;;;17.10;99.90;;;;;;5047774;28;20760;-66
2023/08/08 04:35:47;;;;;;;3.93;1.43;;;17.10;99.90;;;;;;5049229;28;20190;-66
2023/08/08 04:38:15;;;;;;;5.53;1.55;;;17.10;99.90;;;;;;5053298;28;20190;-65
2023/08/08 04:40:42;;;;;;;4.60;1.50;;;17.10;99.90;;;;;;5053268;28;20213;-65
2023/08/08 04:43:09;;;;;;;1.90;1.45;;;17.00;99.90;;;;;;5053060;28;20220;-66
2023/08/08 04:45:36;;;;;;;7.53;1.80;;;17.00;99.90;;;;;;5053994;28;20597;-66
2023/08/08 04:48:03;;;;;;;3.20;1.55;;;17.00;99.90;;;;;;5053090;28;20549;-66
2023/08/08 04:50:30;;;;;;;2.75;1.83;;;17.00;99.90;;;;;;5052648;28;20201;-66
2023/08/08 04:52:59;;;;;;;3.55;1.50;;;17.00;99.90;;;;;;5052323;28;20202;-66
2023/08/08 04:55:26;;;;;;;4.18;1.60;;;17.00;99.90;;;;;;5053486;28;20228;-65
2023/08/08 04:57:53;;;;;;;3.10;1.60;;;17.00;99.90;;;;;;5053830;28;20233;-66
2023/08/08 05:00:20;;;;;;;4.15;1.65;;;17.00;99.90;;;;;;5053796;28;20288;-66
2023/08/08 05:02:47;;;;;;;3.13;1.30;;;17.00;99.90;;;;;;5055966;28;20309;-66
2023/08/08 05:05:14;;;;;;;3.15;1.33;;;17.00;99.90;;;;;;5072805;28;20226;-66
2023/08/08 05:07:41;;;;;;;2.57;1.50;;;17.00;99.90;;;;;;5073118;28;20191;-67
2023/08/08 05:10:10;;;;;;;4.10;1.77;;;17.00;99.90;;;;;;5068958;28;20537;-66
2023/08/08 05:12:37;;;;;;;4.18;1.70;;;17.00;99.90;;;;;;5072326;28;20552;-66
2023/08/08 05:15:05;;;;;;;1.67;1.50;;;17.00;99.90;;;;;;5073949;28;20278;-67
2023/08/08 05:17:32;;;;;;;3.53;1.33;;;17.00;99.90;;;;;;5054416;28;20661;-67
2023/08/08 05:19:59;;;;;;;3.90;1.90;;;17.00;99.90;;;;;;5069244;28;20208;-67
2023/08/08 05:22:27;;;;;;;2.53;1.33;;;17.00;99.90;;;;;;5070315;28;20857;-67
2023/08/08 05:24:54;;;;;;;4.05;1.50;;;17.00;99.90;;;;;;5073511;28;20223;-66
2023/08/08 05:27:22;;;;;;;5.60;1.53;;;17.10;99.90;;;;;;5060901;28;20235;-66
2023/08/08 05:29:49;;;;;;;3.25;1.40;;;17.10;99.90;;;;;;5072681;28;20200;-67
2023/08/08 05:32:16;;;;;;;1.53;1.30;;;17.10;99.90;;;;;;5071844;28;20200;-66
2023/08/08 05:34:43;;;;;;;4.70;1.70;;;17.10;99.90;;;;;;5053556;28;20232;-66
2023/08/08 05:37:10;;;;;;;2.40;1.47;;;17.10;99.90;;;;;;5072404;28;20284;-66
2023/08/08 05:39:37;;;;;;;1.95;1.25;;;17.10;99.90;;;;;;5073109;28;20223;-66
2023/08/08 05:42:04;;;;;;;2.65;1.50;;;17.10;99.90;;;;;;5055302;28;20282;-66
2023/08/08 05:44:33;;;;;;;7.15;2.10;;;17.10;99.90;;;;;;5071665;28;20251;-66
2023/08/08 05:47:00;;;;;;;2.75;1.55;;;17.20;99.90;;;;;;5072150;28;20223;-66
2023/08/08 05:49:27;;;;;;;3.55;1.98;;;17.20;99.90;;;;;;5061468;28;20246;-66
2023/08/08 05:51:54;;;;;;;2.90;1.60;;;17.20;99.90;;;;;;5071562;28;20197;-66
2023/08/08 05:54:21;;;;;;;3.63;1.80;;;17.20;99.90;;;;;;5064039;28;20736;-66
2023/08/08 05:56:48;;;;;;;4.85;1.80;;;17.30;99.90;;;;;;5053894;28;20209;-66
2023/08/08 05:59:15;;;;;;;3.47;1.40;;;17.30;99.90;;;;;;5072329;28;20231;-66
2023/08/08 06:01:44;;;;;;;3.17;1.70;;;17.30;99.90;;;;;;5072573;28;20265;-66
2023/08/08 06:04:11;;;;;;;5.70;1.63;;;17.30;99.90;;;;;;5065468;28;20622;-66
2023/08/08 06:06:38;;;;;;;2.55;1.20;;;17.30;99.90;;;;;;5070587;28;20200;-66
2023/08/08 06:09:05;;;;;;;1.50;1.10;;;17.30;99.90;;;;;;5071939;28;20200;-66
2023/08/08 06:11:32;;;;;;;4.88;1.45;;;17.30;99.90;;;;;;5069451;28;20281;-66
2023/08/08 06:13:59;;;;;;;5.22;1.83;;;17.30;99.90;;;;;;5052610;28;20200;-65
2023/08/08 06:16:26;;;;;;;3.92;1.60;;;17.30;99.90;;;;;;5068332;28;20204;-66
2023/08/08 06:18:55;;;;;;;6.57;1.92;;;17.30;99.90;;;;;;5068121;28;20253;-66
2023/08/08 06:21:22;;;;;;;4.38;1.60;;;17.30;99.90;;;;;;5065594;28;20205;-65
2023/08/08 06:23:50;;;;;;;2.50;1.63;;;17.30;99.90;;;;;;5069785;28;20200;-65
2023/08/08 06:26:16;;;;;;;3.05;1.60;;;17.30;99.90;;;;;;5068096;28;20594;-66
2023/08/08 06:28:44;;;;;;;6.10;1.90;;;17.30;99.90;;;;;;5068005;28;20207;-66
2023/08/08 06:31:11;;;;;;;3.63;1.20;;;17.30;99.70;;;;;;5068933;28;20296;-65
2023/08/08 06:33:38;;;;;;;4.10;1.20;;;17.30;99.60;;;;;;5068319;28;20837;-66
2023/08/08 06:36:07;;;;;;;2.95;1.38;;;17.40;99.80;;;;;;5051613;28;20205;-66
2023/08/08 06:38:34;;;;;;;3.95;1.70;;;17.40;99.70;;;;;;5067219;28;20216;-65
2023/08/08 06:41:01;;;;;;;3.60;1.40;;;17.40;99.40;;;;;;5068358;28;20781;-63
2023/08/08 06:43:28;;;;;;;2.88;1.35;;;17.40;99.30;;;;;;5049046;28;20299;-63
2023/08/08 06:45:56;;;;;;;3.00;1.30;;;17.50;99.00;;;;;;5065888;28;20656;-63
2023/08/08 06:48:24;;;;;;;4.45;1.30;;;17.50;98.90;;;;;;5062079;28;20200;-63
2023/08/08 06:50:51;;;;;;;3.95;1.38;;;17.50;98.90;;;;;;5068927;28;20207;-63
2023/08/08 06:53:19;;;;;;;4.03;1.60;;;17.60;99.10;;;;;;5048144;28;20201;-63
2023/08/08 06:55:46;;;;;;;5.70;1.35;;;17.70;99.30;;;;;;5066836;28;20854;-63
2023/08/08 06:58:13;;;;;;;2.92;1.33;;;17.80;98.30;;;;;;5066304;28;20561;-64
2023/08/08 07:00:40;;;;;;;5.00;1.60;;;17.80;98.70;;;;;;5066233;28;20208;-64
2023/08/08 07:03:07;;;;;;;4.78;1.52;;;17.90;98.40;;;;;;5064477;28;20233;-62
2023/08/08 07:05:34;;;;;;;2.15;1.20;;;17.90;98.10;;;;;;5047691;28;20660;-62
2023/08/08 07:08:01;;;;;;;3.33;1.30;;;17.90;98.10;;;;;;5067235;28;20196;-64
2023/08/08 07:10:30;;;;;;;2.70;1.58;;;17.90;97.90;;;;;;5066006;28;20201;-63
2023/08/08 07:12:57;;;;;;;3.03;1.63;;;17.90;97.50;;;;;;5047989;28;20536;-64
2023/08/08 07:15:25;;;;;;;3.40;1.55;;;17.90;97.20;;;;;;5049219;28;20270;-63
2023/08/08 07:17:52;;;;;;;7.75;1.90;;;17.90;97.40;;;;;;5065622;28;20253;-63
2023/08/08 07:20:19;;;;;;;2.90;1.67;;;17.80;97.10;;;;;;5063351;28;20200;-61
2023/08/08 07:22:46;;;;;;;2.65;1.58;;;17.90;97.40;;;;;;5067959;28;20631;-63
2023/08/08 07:25:14;;;;;;;5.38;1.88;;;17.90;97.40;;;;;;5068012;28;20672;-62
2023/08/08 07:27:42;;;;;;;2.97;1.50;;;17.90;97.50;;;;;;5064799;28;20517;-62
2023/08/08 07:30:11;;;;;;;3.08;1.60;;;17.90;97.50;;;;;;5056951;28;20678;-63
2023/08/08 07:32:38;;;;;;;4.47;1.75;;;18.00;97.40;;;;;;5040840;28;20209;-62
2023/08/08 07:35:08;;;;;;;7.25;1.52;;;18.00;97.40;;;;;;5064221;28;20208;-63
2023/08/08 07:37:35;;;;;;;4.38;1.40;;;18.10;97.20;;;;;;5066297;28;20201;-63
2023/08/08 07:40:03;;;;;;;2.97;1.48;;;18.10;97.20;;;;;;5066142;28;20217;-63
2023/08/08 07:42:30;;;;;;;2.85;1.33;;;18.20;97.20;;;;;;5067375;28;20220;-64
2023/08/08 07:44:59;;;;;;;2.85;1.52;;;18.20;97.00;;;;;;5067573;28;20686;-63
2023/08/08 07:47:26;;;;;;;8.43;1.88;;;18.20;96.70;;;;;;5058629;28;20251;-64
2023/08/08 07:49:53;;;;;;;7.90;1.90;;;18.10;96.50;;;;;;5042288;28;20572;-63
2023/08/08 07:52:20;;;;;;;2.63;1.42;;;18.10;96.20;;;;;;5063301;28;20220;-63
2023/08/08 07:54:47;;;;;;;5.07;1.48;;;18.10;96.10;;;;;;5068254;28;20279;-63
2023/08/08 07:57:14;;;;;;;4.65;1.83;;;18.00;96.10;;;;;;5064373;28;20196;-63
2023/08/08 07:59:41;;;;;;;7.55;1.70;;;18.00;96.00;;;;;;5065352;28;20196;-64
2023/08/08 08:02:10;;;;;;;2.40;1.50;;;18.00;96.00;;;;;;5048450;28;20225;-63
2023/08/08 08:04:37;;;;;;;5.82;1.83;;;18.00;96.00;;;;;;5041769;28;20189;-62
2023/08/08 08:07:04;;;;;;;3.20;1.38;;;18.00;96.10;;;;;;5067430;28;20671;-62
2023/08/08 08:09:31;;;;;;;4.05;1.58;;;18.10;96.20;;;;;;5065074;28;20204;-62
2023/08/08 08:11:58;;;;;;;3.42;1.42;;;18.20;96.50;;;;;;5064782;28;20193;-63
2023/08/08 08:14:25;;;;;;;3.08;1.90;;;18.30;96.30;;;;;;5046918;28;20242;-63
2023/08/08 08:16:52;;;;;;;4.10;1.50;;;18.40;96.00;;;;;;5065895;28;20193;-62
2023/08/08 08:19:21;;;;;;;5.57;1.63;;;18.50;95.80;;;;;;5064739;28;20201;-63
2023/08/08 08:21:48;;;;;;;3.95;1.77;;;18.50;95.70;;;;;;5064803;28;20296;-62
2023/08/08 08:24:15;;;;;;;3.08;1.40;;;18.50;95.30;;;;;;5066620;28;20301;-64
2023/08/08 08:26:42;;;;;;;2.03;1.73;;;18.50;95.30;;;;;;5065514;28;20223;-63
2023/08/08 08:29:09;;;;;;;1.85;1.40;;;18.50;95.30;;;;;;5066965;28;20211;-63
2023/08/08 08:31:37;;;;;;;3.38;1.70;;;18.50;95.10;;;;;;5067934;28;20247;-63
2023/08/08 08:34:04;;;;;;;5.05;1.90;;;18.50;95.10;;;;;;5057414;28;20560;-63
2023/08/08 08:36:32;;;;;;;2.92;1.30;;;18.50;94.90;;;;;;5066969;28;20688;-63
2023/08/08 08:38:59;;;;;;;3.83;1.48;;;18.50;94.60;;;;;;5069813;28;20232;-64
2023/08/08 08:41:29;;;;;;;4.20;1.65;;;18.50;94.60;;;;;;5066746;28;20193;-64
2023/08/08 08:43:56;;;;;;;2.80;1.60;;;18.60;94.40;;;;;;5063801;28;20200;-64
2023/08/08 08:46:26;;;;;;;3.47;1.63;;;18.60;94.10;;;;;;5064126;28;20214;-64
2023/08/08 08:48:56;;;;;;;2.35;1.52;;;18.70;93.80;;;;;;5063041;28;20656;-63
2023/08/08 08:51:23;;;;;;;3.05;1.80;;;18.80;93.60;;;;;;5048285;28;20216;-63
2023/08/08 08:53:52;;;;;;;3.40;1.90;;;18.90;93.70;;;;;;5063168;28;20194;-63
2023/08/08 08:56:20;;;;;;;2.53;1.40;;;18.90;93.10;;;;;;5046168;28;20197;-63
2023/08/08 08:58:47;;;;;;;5.53;1.73;;;18.90;92.30;;;;;;5061996;28;20209;-63
2023/08/08 09:01:15;;;;;;;5.18;1.35;;;18.90;92.10;;;;;;5062464;28;20197;-63
2023/08/08 09:03:44;;;;;;;2.22;1.45;;;18.80;91.80;;;;;;5064117;28;20569;-63
2023/08/08 09:06:11;;;;;;;3.78;1.60;;;18.70;91.80;;;;;;5041627;28;20191;-63
2023/08/08 09:08:39;;;;;;;4.60;1.58;;;18.70;92.00;;;;;;5064547;28;20259;-63
2023/08/08 09:11:07;;;;;;;3.33;1.40;;;18.70;91.90;;;;;;5058588;28;20203;-63
2023/08/08 09:13:39;;;;;;;2.28;1.50;;;18.70;91.80;;;;;;5064742;28;20212;-63
2023/08/08 09:16:08;;;;;;;1.65;1.40;;;18.80;92.00;;;;;;5064721;28;20248;-63
2023/08/08 09:18:38;;;;;;;3.28;1.55;;;19.00;92.10;;;;;;5066366;28;20197;-63
2023/08/08 09:21:05;;;;;;;5.00;2.13;;;19.10;91.50;;;;;;5065809;28;20706;-63
2023/08/08 09:23:32;;;;;;;6.35;1.85;;;19.20;91.00;;;;;;5051662;28;20213;-63
2023/08/08 09:25:59;;;;;;;3.08;1.42;;;19.20;90.80;;;;;;5069420;28;20924;-63
2023/08/08 09:28:28;;;;;;;4.60;1.85;;;19.20;90.60;;;;;;5064095;28;20211;-63
2023/08/08 09:30:55;;;;;;;6.45;1.80;;;19.20;90.70;;;;;;5068055;28;20197;-62
2023/08/08 09:33:23;;;;;;;3.25;1.90;;;19.20;90.70;;;;;;5065199;28;20197;-62
2023/08/08 09:35:50;;;;;;;2.00;1.60;;;19.20;90.60;;;;;;5068657;28;20205;-62
2023/08/08 09:38:17;;;;;;;3.28;1.60;;;19.20;90.00;;;;;;5061703;28;20218;-63
2023/08/08 09:40:44;;;;;;;3.53;1.90;;;19.10;90.10;;;;;;5067237;28;20204;-62
2023/08/08 09:43:12;;;;;;;4.07;1.75;;;19.10;90.50;;;;;;5065965;28;20212;-63
2023/08/08 09:45:42;;;;;;;6.22;1.98;;;19.20;90.20;;;;;;5066279;28;20205;-63
2023/08/08 09:48:09;;;;;;;5.10;1.90;;;19.20;90.20;;;;;;5051289;28;20221;-63
2023/08/08 09:50:36;;;;;;;6.47;1.70;;;19.20;90.10;;;;;;5051775;28;20201;-63
2023/08/08 09:53:04;;;;;;;3.60;1.63;;;19.20;89.20;;;;;;5070159;28;20243;-63
2023/08/08 09:55:33;;;;;;;3.63;1.30;;;19.30;89.00;;;;;;5065709;28;20185;-62
2023/08/08 09:58:01;;;;;;;4.30;1.92;;;19.30;88.30;;;;;;5070531;28;20209;-63
2023/08/08 10:00:30;;;;;;;2.97;1.38;;;19.40;87.80;;;;;;5051697;28;20197;-64
2023/08/08 10:03:00;;;;;;;3.95;1.70;;;19.40;87.50;;;;;;5068994;28;20568;-64
2023/08/08 10:05:28;;;;;;;4.60;1.75;;;19.50;87.50;;;;;;5068396;28;20230;-63
2023/08/08 10:07:56;;;;;;;4.30;1.63;;;19.60;86.90;;;;;;5069363;28;20259;-64
2023/08/08 10:10:23;;;;;;;7.80;1.77;;;19.60;87.60;;;;;;5050590;28;20199;-63
2023/08/08 10:12:51;;;;;;;6.55;1.40;;;19.80;88.10;;;;;;5070279;28;20231;-62
2023/08/08 10:15:18;;;;;;;1.58;1.42;;;19.90;87.20;;;;;;5069282;28;20285;-62
2023/08/08 10:17:45;;;;;;;5.20;1.98;;;20.00;83.90;;;;;;5072060;28;20579;-63
2023/08/08 10:20:21;;;;;;;2.20;1.60;;;20.00;82.80;;;;;;5059574;28;20296;-62
2023/08/08 10:22:52;;;;;;;5.53;1.48;;;20.20;83.20;;;;;;5070135;28;20219;-63
2023/08/08 10:25:20;;;;;;;2.15;1.60;;;20.10;82.20;;;;;;5070176;28;20193;-63
2023/08/08 10:27:47;;;;;;;4.70;1.42;;;20.20;82.50;;;;;;5069162;28;20217;-63
2023/08/08 10:30:15;;;;;;;1.63;1.02;;;20.20;81.60;;;;;;5067892;28;20201;-63
2023/08/08 10:32:43;;;;;;;5.32;1.67;;;20.20;82.10;;;;;;5069271;28;20244;-63
2023/08/08 10:35:12;;;;;;;5.22;1.92;;;20.20;82.80;;;;;;5051164;28;20324;-63
2023/08/08 10:37:42;;;;;;;2.30;1.30;;;20.20;81.60;;;;;;5066974;28;20280;-62
2023/08/08 10:40:11;;;;;;;3.83;2.05;;;20.30;82.10;;;;;;5063245;28;20266;-64
2023/08/08 10:42:47;;;;;;;2.75;1.27;;;20.40;83.10;;;;;;5065409;28;20563;-64
2023/08/08 10:45:16;;;;;;;1.63;1.30;;;20.40;81.70;;;;;;5068039;28;20192;-64
2023/08/08 10:47:45;;;;;;;4.03;1.60;;;20.60;82.00;;;;;;5068327;28;20197;-64
2023/08/08 10:50:14;;;;;;;3.35;1.63;;;20.60;81.50;;;;;;5049883;28;20204;-64
2023/08/08 10:52:58;;;;;;;4.40;1.35;;;20.60;79.50;;;;;;5050897;28;20205;-64
2023/08/08 10:55:26;;;;;;;2.25;1.50;;;20.60;78.70;;;;;;5068129;28;20251;-64
2023/08/08 10:57:59;;;;;;;2.08;1.60;;;20.50;78.70;;;;;;5067857;28;20663;-63
2023/08/08 11:00:30;;;;;;;2.45;1.45;;;20.60;78.50;;;;;;5066892;28;20752;-64
2023/08/08 11:02:58;;;;;;;3.40;1.50;;;20.60;78.40;;;;;;5065148;28;20324;-64
2023/08/08 11:05:27;;;;;;;2.20;1.52;;;20.70;76.50;;;;;;5064146;28;20221;-63
2023/08/08 11:07:54;;;;;;;3.00;1.60;;;20.80;76.20;;;;;;5063908;28;20284;-64
2023/08/08 11:10:23;;;;;;;6.38;1.40;;;20.90;75.80;;;;;;5061602;28;20641;-64
2023/08/08 11:12:56;;;;;;;4.82;1.55;;;21.10;74.80;;;;;;5066237;28;20189;-64
2023/08/08 11:15:23;;;;;;;1.33;1.20;;;21.20;73.00;;;;;;5049028;28;20248;-64
2023/08/08 11:17:52;;;;;;;2.88;1.25;;;21.30;72.40;;;;;;5067263;28;20251;-63
2023/08/08 11:20:19;;;;;;;1.30;1.20;;;21.20;71.50;;;;;;5068523;28;20276;-64
2023/08/08 11:22:51;;;;;;;3.72;1.40;;;21.10;71.90;;;;;;5067053;28;20212;-63
2023/08/08 11:25:18;;;;;;;4.32;1.63;;;20.90;72.60;;;;;;5067376;28;20193;-64
2023/08/08 11:27:51;;;;;;;1.60;1.50;;;20.80;73.40;;;;;;5068580;28;20217;-63
2023/08/08 11:30:19;;;;;;;3.28;1.30;;;20.60;77.10;;;;;;5067669;28;20238;-63
2023/08/08 11:32:47;;;;;;;3.80;1.10;;;20.40;83.70;;;;;;5065321;28;20598;-64
2023/08/08 11:35:18;;;;;;;1.55;1.25;;;20.20;85.70;;;;;;5067757;28;20627;-63
2023/08/08 11:37:46;;;;;;;1.23;1.13;;;20.00;86.90;;;;;;5061141;28;20216;-63
2023/08/08 11:40:14;;;;;;;1.10;1.00;;;19.90;88.10;;;;;;5065772;28;20275;-63
2023/08/08 11:42:42;;;;;;;3.28;1.20;;;19.70;88.30;;;;;;5066604;28;20240;-63
2023/08/08 11:45:12;;;;;;;1.23;0.93;;;19.70;89.90;;;;;;5067876;28;20205;-64
2023/08/08 11:47:39;;;;;;;1.23;1.08;;;19.70;90.00;;;;;;5066262;28;20233;-64
2023/08/08 11:50:09;;;;;;;2.05;1.20;;;19.70;90.70;;;;;;5067684;28;20263;-63
2023/08/08 11:52:38;;;;;;;1.00;1.00;;;19.90;91.00;;;;;;5066084;28;20271;-63
2023/08/08 11:55:07;;;;;;;3.50;1.25;;;20.00;90.90;;;;;;5067310;28;20256;-64
2023/08/08 11:57:36;;;;;;;4.00;1.10;;;20.10;91.20;;;;;;5067130;28;20243;-64
2023/08/08 12:00:07;;;;;;;1.38;1.00;;;20.20;91.00;;;;;;5066566;28;20251;-63
2023/08/08 12:02:43;;;;;;;3.10;1.30;;;20.30;90.90;;;;;;5065500;28;20228;-64
2023/08/08 12:05:12;;;;;;;1.15;1.05;;;20.50;90.80;;;;;;5061991;28;20189;-64
2023/08/08 12:07:41;;;;;;;5.57;1.17;;;20.60;90.80;;;;;;5067090;28;20692;-64
2023/08/08 12:10:20;;;;;;;2.40;1.00;;;20.70;90.80;;;;;;5063725;28;20271;-64
2023/08/08 12:12:48;;;;;;;0.88;0.82;;;20.80;90.80;;;;;;5063315;28;20188;-64
2023/08/08 12:15:15;;;;;;;2.60;1.20;;;20.90;90.80;;;;;;5060856;28;20213;-64
2023/08/08 12:17:43;;;;;;;1.35;1.08;;;21.00;90.30;;;;;;5057520;28;20193;-64
2023/08/08 12:20:11;;;;;;;1.73;1.17;;;21.00;90.10;;;;;;5064903;28;20617;-64
2023/08/08 12:22:38;;;;;;;1.67;1.15;;;21.10;88.90;;;;;;5065451;28;20287;-64
2023/08/08 12:25:08;;;;;;;0.95;0.90;;;21.20;88.60;;;;;;5065836;28;20564;-63
2023/08/08 12:27:35;;;;;;;1.55;1.10;;;21.10;88.30;;;;;;5047597;28;20656;-63
2023/08/08 12:30:02;;;;;;;1.75;1.10;;;21.20;89.00;;;;;;5068471;28;20276;-63
2023/08/08 12:32:31;;;;;;;1.20;1.10;;;21.30;88.90;;;;;;5066048;28;20204;-63
2023/08/08 12:34:59;;;;;;;1.20;1.00;;;21.40;89.20;;;;;;5065927;28;20259;-63
2023/08/08 12:37:27;;;;;;;1.10;1.00;;;21.50;89.00;;;;;;5051974;28;20656;-63
2023/08/08 12:39:54;;;;;;;1.15;1.05;;;21.50;89.30;;;;;;5032765;28;20626;-63
2023/08/08 12:42:21;;;;;;;0.93;0.82;;;21.60;89.20;;;;;;5046673;28;20225;-63
2023/08/08 12:44:51;;;;;;;2.80;0.90;;;21.60;88.90;;;;;;5057648;28;20209;-63
2023/08/08 12:47:18;;;;;;;1.95;0.80;;;21.60;87.70;;;;;;5059019;28;20189;-63
2023/08/08 12:49:45;;;;;;;3.22;1.10;;;21.60;86.90;;;;;;5065682;28;20189;-63
2023/08/08 12:52:14;;;;;;;1.65;1.05;;;21.70;85.40;;;;;;5060777;28;20284;-63